Terminal Aerodrome Forecast
Issued by NWS

Home | Current Version | Previous Version | Text Only | Print | Product List | Glossary On
Versions: 1 2 3 4 5 6 7 8 9 10 11 12 13 14
000
FTUS42 TJSJ 201721
TAFJSJ
TAF
TJSJ 201721Z 2018/2118 01008KT P6SM VCTS FEW030CB SCT080 BKN100
     FM202300 VRB02KT P6SM VCSH FEW030 SCT060 SCT100
      TEMPO 2023/2103 08010KT P6SM TSRA SCT030CB OVC100
     FM210400 VRB03KT P6SM SCT020 OVC150
     FM211200 13005KT P6SM VCSH SCT030 OVC100=

USA.gov is the U.S. government's official web portal to all federal, state and local government web resources and services.